sensor_id;sensor_type;location;lat;lon;timestamp;pressure;altitude;pressure_sealevel;temperature;humidity
22753;BME280;11543;43.144;24.684;2023-11-18T00:01:17;98102.78;;;9.08;88.98
22753;BME280;11543;43.144;24.684;2023-11-18T00:03:45;98125.25;;;9.23;88.78
22753;BME280;11543;43.144;24.684;2023-11-18T00:06:11;98117.22;;;9.31;88.61
22753;BME280;11543;43.144;24.684;2023-11-18T00:08:38;98109.53;;;9.36;88.59
22753;BME280;11543;43.144;24.684;2023-11-18T00:11:03;98130.63;;;9.39;88.26
22753;BME280;11543;43.144;24.684;2023-11-18T00:13:29;98116.06;;;9.34;88.14
22753;BME280;11543;43.144;24.684;2023-11-18T00:15:55;98136.31;;;9.36;88.07
22753;BME280;11543;43.144;24.684;2023-11-18T00:18:20;98128.72;;;9.15;87.79
22753;BME280;11543;43.144;24.684;2023-11-18T00:20:46;98129.91;;;9.21;87.63
22753;BME280;11543;43.144;24.684;2023-11-18T00:23:11;98130.59;;;9.23;87.48
22753;BME280;11543;43.144;24.684;2023-11-18T00:25:38;98125.53;;;9.12;87.39
22753;BME280;11543;43.144;24.684;2023-11-18T00:28:05;98147.66;;;9.30;87.55
22753;BME280;11543;43.144;24.684;2023-11-18T00:30:33;98135.91;;;9.07;87.30
22753;BME280;11543;43.144;24.684;2023-11-18T00:32:58;98153.97;;;9.05;87.66
22753;BME280;11543;43.144;24.684;2023-11-18T00:35:24;98130.50;;;8.90;87.59
22753;BME280;11543;43.144;24.684;2023-11-18T00:37:49;98144.94;;;9.06;87.11
22753;BME280;11543;43.144;24.684;2023-11-18T00:40:15;98135.22;;;8.97;86.81
22753;BME280;11543;43.144;24.684;2023-11-18T00:42:43;98133.19;;;8.99;86.78
22753;BME280;11543;43.144;24.684;2023-11-18T00:45:09;98148.47;;;9.14;86.54
22753;BME280;11543;43.144;24.684;2023-11-18T00:47:38;98127.00;;;8.98;86.52
22753;BME280;11543;43.144;24.684;2023-11-18T00:50:04;98131.53;;;8.98;86.45
22753;BME280;11543;43.144;24.684;2023-11-18T00:52:33;98124.22;;;9.16;86.27
22753;BME280;11543;43.144;24.684;2023-11-18T00:54:59;98111.84;;;9.15;85.77
22753;BME280;11543;43.144;24.684;2023-11-18T00:57:24;98117.38;;;9.30;85.54
22753;BME280;11543;43.144;24.684;2023-11-18T00:59:50;98114.16;;;9.10;84.97
22753;BME280;11543;43.144;24.684;2023-11-18T01:02:15;98116.69;;;9.19;84.76
22753;BME280;11543;43.144;24.684;2023-11-18T01:04:43;98115.16;;;9.01;84.54
22753;BME280;11543;43.144;24.684;2023-11-18T01:07:11;98138.88;;;8.96;84.65
22753;BME280;11543;43.144;24.684;2023-11-18T01:09:37;98135.53;;;8.93;84.91
22753;BME280;11543;43.144;24.684;2023-11-18T01:12:05;98126.13;;;8.81;85.06
22753;BME280;11543;43.144;24.684;2023-11-18T01:14:31;98125.50;;;8.61;85.47
22753;BME280;11543;43.144;24.684;2023-11-18T01:16:57;98120.06;;;8.71;85.64
22753;BME280;11543;43.144;24.684;2023-11-18T01:19:23;98126.72;;;8.67;85.65
22753;BME280;11543;43.144;24.684;2023-11-18T01:21:49;98103.97;;;8.63;85.41
22753;BME280;11543;43.144;24.684;2023-11-18T01:24:15;98087.56;;;8.58;85.81
22753;BME280;11543;43.144;24.684;2023-11-18T01:26:41;98072.16;;;8.52;85.58
22753;BME280;11543;43.144;24.684;2023-11-18T01:29:07;98091.31;;;8.73;85.41
22753;BME280;11543;43.144;24.684;2023-11-18T01:31:33;98074.84;;;8.52;85.21
22753;BME280;11543;43.144;24.684;2023-11-18T01:33:58;98068.81;;;8.50;85.18
22753;BME280;11543;43.144;24.684;2023-11-18T01:36:25;98085.56;;;8.60;85.18
22753;BME280;11543;43.144;24.684;2023-11-18T01:38:50;98095.56;;;8.50;84.84
22753;BME280;11543;43.144;24.684;2023-11-18T01:41:16;98100.19;;;8.40;84.91
22753;BME280;11543;43.144;24.684;2023-11-18T01:43:45;98126.41;;;8.70;85.11
22753;BME280;11543;43.144;24.684;2023-11-18T01:46:11;98099.59;;;8.62;84.62
22753;BME280;11543;43.144;24.684;2023-11-18T01:48:40;98132.22;;;8.66;84.64
22753;BME280;11543;43.144;24.684;2023-11-18T01:51:07;98115.28;;;8.57;84.46
22753;BME280;11543;43.144;24.684;2023-11-18T01:53:36;98103.00;;;8.38;84.30
22753;BME280;11543;43.144;24.684;2023-11-18T01:56:02;98091.69;;;8.44;83.94
22753;BME280;11543;43.144;24.684;2023-11-18T01:58:32;98114.94;;;8.52;83.75
22753;BME280;11543;43.144;24.684;2023-11-18T02:00:58;98130.66;;;8.55;83.29
22753;BME280;11543;43.144;24.684;2023-11-18T02:03:23;98144.19;;;8.53;83.20
22753;BME280;11543;43.144;24.684;2023-11-18T02:05:51;98090.72;;;8.27;82.92
22753;BME280;11543;43.144;24.684;2023-11-18T02:08:17;98092.94;;;8.32;82.91
22753;BME280;11543;43.144;24.684;2023-11-18T02:10:48;98152.09;;;8.63;82.91
22753;BME280;11543;43.144;24.684;2023-11-18T02:13:22;98151.09;;;8.64;82.76
22753;BME280;11543;43.144;24.684;2023-11-18T02:15:53;98151.47;;;8.69;82.69
22753;BME280;11543;43.144;24.684;2023-11-18T02:18:19;98107.59;;;8.54;82.37
22753;BME280;11543;43.144;24.684;2023-11-18T02:20:46;98113.97;;;8.61;81.72
22753;BME280;11543;43.144;24.684;2023-11-18T02:23:13;98107.03;;;8.42;81.53
22753;BME280;11543;43.144;24.684;2023-11-18T02:25:45;98146.16;;;8.77;81.64
22753;BME280;11543;43.144;24.684;2023-11-18T02:28:11;98119.41;;;8.77;81.31
22753;BME280;11543;43.144;24.684;2023-11-18T02:30:37;98131.53;;;8.98;80.97
22753;BME280;11543;43.144;24.684;2023-11-18T02:33:19;98160.66;;;9.09;80.72
22753;BME280;11543;43.144;24.684;2023-11-18T02:35:53;98128.50;;;8.92;80.19
22753;BME280;11543;43.144;24.684;2023-11-18T02:38:31;98113.16;;;9.03;79.82
22753;BME280;11543;43.144;24.684;2023-11-18T02:41:06;98123.00;;;9.02;79.52
22753;BME280;11543;43.144;24.684;2023-11-18T02:43:35;98120.63;;;8.91;79.45
22753;BME280;11543;43.144;24.684;2023-11-18T02:46:03;98148.94;;;9.02;78.97
22753;BME280;11543;43.144;24.684;2023-11-18T02:48:30;98115.44;;;8.81;78.82
22753;BME280;11543;43.144;24.684;2023-11-18T02:50:57;98125.16;;;8.90;79.01
22753;BME280;11543;43.144;24.684;2023-11-18T02:53:22;98127.53;;;9.02;78.80
22753;BME280;11543;43.144;24.684;2023-11-18T02:55:48;98141.91;;;9.01;78.18
22753;BME280;11543;43.144;24.684;2023-11-18T02:58:13;98131.16;;;8.84;78.10
22753;BME280;11543;43.144;24.684;2023-11-18T03:00:39;98126.13;;;8.81;78.04
22753;BME280;11543;43.144;24.684;2023-11-18T03:03:04;98154.25;;;8.93;77.71
22753;BME280;11543;43.144;24.684;2023-11-18T03:05:30;98158.28;;;8.98;77.45
22753;BME280;11543;43.144;24.684;2023-11-18T03:07:56;98117.00;;;8.66;77.03
22753;BME280;11543;43.144;24.684;2023-11-18T03:10:23;98151.88;;;8.82;76.63
22753;BME280;11543;43.144;24.684;2023-11-18T03:12:53;98151.72;;;8.84;76.73
22753;BME280;11543;43.144;24.684;2023-11-18T03:15:19;98157.91;;;8.84;76.94
22753;BME280;11543;43.144;24.684;2023-11-18T03:17:45;98161.56;;;8.83;77.15
22753;BME280;11543;43.144;24.684;2023-11-18T03:20:13;98130.66;;;8.55;77.00
22753;BME280;11543;43.144;24.684;2023-11-18T03:22:43;98142.31;;;8.46;77.21
22753;BME280;11543;43.144;24.684;2023-11-18T03:25:09;98127.94;;;8.21;77.91
22753;BME280;11543;43.144;24.684;2023-11-18T03:27:35;98163.97;;;8.35;77.76
22753;BME280;11543;43.144;24.684;2023-11-18T03:30:00;98139.47;;;8.21;77.99
22753;BME280;11543;43.144;24.684;2023-11-18T03:32:26;98127.31;;;8.27;77.66
22753;BME280;11543;43.144;24.684;2023-11-18T03:34:51;98132.56;;;8.11;77.75
22753;BME280;11543;43.144;24.684;2023-11-18T03:37:17;98134.34;;;8.02;78.07
22753;BME280;11543;43.144;24.684;2023-11-18T03:39:42;98127.19;;;7.85;78.54
22753;BME280;11543;43.144;24.684;2023-11-18T03:42:10;98119.94;;;7.77;78.64
22753;BME280;11543;43.144;24.684;2023-11-18T03:44:35;98123.28;;;7.79;78.84
22753;BME280;11543;43.144;24.684;2023-11-18T03:47:02;98125.06;;;7.71;79.01
22753;BME280;11543;43.144;24.684;2023-11-18T03:49:28;98106.91;;;7.56;79.56
22753;BME280;11543;43.144;24.684;2023-11-18T03:51:53;98126.28;;;7.58;79.50
22753;BME280;11543;43.144;24.684;2023-11-18T03:54:20;98105.56;;;7.52;79.57
22753;BME280;11543;43.144;24.684;2023-11-18T03:56:45;98118.44;;;7.57;80.04
22753;BME280;11543;43.144;24.684;2023-11-18T03:59:11;98103.03;;;7.33;79.39
22753;BME280;11543;43.144;24.684;2023-11-18T04:01:36;98128.28;;;7.56;79.49
22753;BME280;11543;43.144;24.684;2023-11-18T04:04:02;98114.16;;;7.46;79.78
22753;BME280;11543;43.144;24.684;2023-11-18T04:06:29;98135.59;;;7.54;79.50
22753;BME280;11543;43.144;24.684;2023-11-18T04:08:54;98123.84;;;7.47;79.05
22753;BME280;11543;43.144;24.684;2023-11-18T04:11:20;98131.78;;;7.39;78.98
22753;BME280;11543;43.144;24.684;2023-11-18T04:13:45;98139.94;;;7.38;78.82
22753;BME280;11543;43.144;24.684;2023-11-18T04:16:14;98145.97;;;7.22;79.08
22753;BME280;11543;43.144;24.684;2023-11-18T04:18:41;98127.34;;;6.94;78.19
22753;BME280;11543;43.144;24.684;2023-11-18T04:21:08;98140.00;;;7.10;78.88
22753;BME280;11543;43.144;24.684;2023-11-18T04:23:38;98139.84;;;7.12;78.64
22753;BME280;11543;43.144;24.684;2023-11-18T04:26:04;98150.06;;;7.16;78.40
22753;BME280;11543;43.144;24.684;2023-11-18T04:28:30;98137.69;;;6.97;78.66
22753;BME280;11543;43.144;24.684;2023-11-18T04:30:56;98154.47;;;7.08;78.18
22753;BME280;11543;43.144;24.684;2023-11-18T04:33:21;98133.75;;;7.01;78.24
22753;BME280;11543;43.144;24.684;2023-11-18T04:35:47;98129.28;;;6.92;78.05
22753;BME280;11543;43.144;24.684;2023-11-18T04:38:13;98141.81;;;7.10;77.66
22753;BME280;11543;43.144;24.684;2023-11-18T04:40:38;98127.59;;;7.19;77.58
22753;BME280;11543;43.144;24.684;2023-11-18T04:43:06;98122.69;;;6.96;77.01
22753;BME280;11543;43.144;24.684;2023-11-18T04:45:32;98135.41;;;7.02;76.66
22753;BME280;11543;43.144;24.684;2023-11-18T04:47:57;98134.50;;;7.12;76.31
22753;BME280;11543;43.144;24.684;2023-11-18T04:50:25;98124.78;;;6.93;75.90
22753;BME280;11543;43.144;24.684;2023-11-18T04:52:50;98144.09;;;7.05;76.24
22753;BME280;11543;43.144;24.684;2023-11-18T04:55:15;98132.94;;;6.91;75.69
22753;BME280;11543;43.144;24.684;2023-11-18T04:57:41;98110.47;;;6.66;75.19
22753;BME280;11543;43.144;24.684;2023-11-18T05:00:07;98153.78;;;6.78;76.00
22753;BME280;11543;43.144;24.684;2023-11-18T05:02:39;98128.59;;;6.63;75.46
22753;BME280;11543;43.144;24.684;2023-11-18T05:05:06;98136.88;;;6.87;75.84
22753;BME280;11543;43.144;24.684;2023-11-18T05:07:32;98108.56;;;6.59;75.29
22753;BME280;11543;43.144;24.684;2023-11-18T05:09:58;98149.81;;;6.82;74.00
22753;BME280;11543;43.144;24.684;2023-11-18T05:12:24;98153.69;;;6.97;73.82
22753;BME280;11543;43.144;24.684;2023-11-18T05:14:49;98152.78;;;6.79;73.90
22753;BME280;11543;43.144;24.684;2023-11-18T05:17:15;98141.91;;;6.90;73.68
22753;BME280;11543;43.144;24.684;2023-11-18T05:19:41;98127.91;;;6.88;73.20
22753;BME280;11543;43.144;24.684;2023-11-18T05:22:08;98115.66;;;6.68;72.57
22753;BME280;11543;43.144;24.684;2023-11-18T05:24:33;98118.44;;;6.76;71.92
22753;BME280;11543;43.144;24.684;2023-11-18T05:26:59;98109.03;;;6.72;72.60
22753;BME280;11543;43.144;24.684;2023-11-18T05:29:30;98155.16;;;6.82;71.95
22753;BME280;11543;43.144;24.684;2023-11-18T05:31:56;98148.44;;;6.78;71.37
22753;BME280;11543;43.144;24.684;2023-11-18T05:34:22;98152.38;;;6.74;71.22
22753;BME280;11543;43.144;24.684;2023-11-18T05:36:48;98156.38;;;6.97;71.67
22753;BME280;11543;43.144;24.684;2023-11-18T05:39:16;98129.38;;;6.73;71.15
22753;BME280;11543;43.144;24.684;2023-11-18T05:41:42;98134.31;;;6.68;71.03
22753;BME280;11543;43.144;24.684;2023-11-18T05:44:11;98138.41;;;6.62;70.41
22753;BME280;11543;43.144;24.684;2023-11-18T05:46:43;98137.28;;;6.65;70.45
22753;BME280;11543;43.144;24.684;2023-11-18T05:49:12;98142.50;;;6.84;70.88
22753;BME280;11543;43.144;24.684;2023-11-18T05:51:39;98167.59;;;6.91;70.30
22753;BME280;11543;43.144;24.684;2023-11-18T05:54:08;98143.31;;;6.67;70.26
22753;BME280;11543;43.144;24.684;2023-11-18T05:56:33;98165.81;;;6.82;70.25
22753;BME280;11543;43.144;24.684;2023-11-18T05:58:59;98157.28;;;6.79;69.98
22753;BME280;11543;43.144;24.684;2023-11-18T06:01:28;98166.50;;;6.94;70.71
22753;BME280;11543;43.144;24.684;2023-11-18T06:03:54;98178.78;;;7.05;70.26
22753;BME280;11543;43.144;24.684;2023-11-18T06:06:19;98141.72;;;6.74;69.21
22753;BME280;11543;43.144;24.684;2023-11-18T06:08:47;98123.38;;;6.71;69.23
22753;BME280;11543;43.144;24.684;2023-11-18T06:11:14;98171.25;;;7.18;69.12
22753;BME280;11543;43.144;24.684;2023-11-18T06:13:45;98151.91;;;7.16;68.79
22753;BME280;11543;43.144;24.684;2023-11-18T06:16:18;98167.91;;;7.16;68.67
22753;BME280;11543;43.144;24.684;2023-11-18T06:18:48;98164.00;;;7.10;68.97
22753;BME280;11543;43.144;24.684;2023-11-18T06:21:15;98181.16;;;7.08;68.86
22753;BME280;11543;43.144;24.684;2023-11-18T06:23:42;98187.06;;;7.29;68.56
22753;BME280;11543;43.144;24.684;2023-11-18T06:26:08;98193.63;;;7.34;68.48
22753;BME280;11543;43.144;24.684;2023-11-18T06:28:55;98181.03;;;7.27;68.58
22753;BME280;11543;43.144;24.684;2023-11-18T06:31:21;98177.66;;;7.25;68.01
22753;BME280;11543;43.144;24.684;2023-11-18T06:33:49;98193.00;;;7.41;67.44
22753;BME280;11543;43.144;24.684;2023-11-18T06:38:40;98195.34;;;7.26;67.83
22753;BME280;11543;43.144;24.684;2023-11-18T06:41:06;98184.38;;;7.29;68.04
22753;BME280;11543;43.144;24.684;2023-11-18T06:43:37;98188.81;;;7.38;67.52
22753;BME280;11543;43.144;24.684;2023-11-18T06:46:25;98194.22;;;7.46;66.72
22753;BME280;11543;43.144;24.684;2023-11-18T06:48:52;98206.81;;;7.36;67.41
22753;BME280;11543;43.144;24.684;2023-11-18T06:51:23;98201.53;;;7.26;66.91
22753;BME280;11543;43.144;24.684;2023-11-18T06:53:56;98207.09;;;7.33;67.45
22753;BME280;11543;43.144;24.684;2023-11-18T06:56:26;98216.63;;;7.35;67.21
22753;BME280;11543;43.144;24.684;2023-11-18T06:58:52;98222.13;;;7.34;66.28
22753;BME280;11543;43.144;24.684;2023-11-18T07:01:19;98211.34;;;7.26;66.38
22753;BME280;11543;43.144;24.684;2023-11-18T07:03:49;98216.94;;;7.32;66.39
22753;BME280;11543;43.144;24.684;2023-11-18T07:06:19;98220.34;;;7.25;66.80
22753;BME280;11543;43.144;24.684;2023-11-18T07:08:49;98217.28;;;7.20;67.12
22753;BME280;11543;43.144;24.684;2023-11-18T07:11:18;98196.56;;;7.14;66.93
22753;BME280;11543;43.144;24.684;2023-11-18T07:13:45;98207.47;;;7.20;67.23
22753;BME280;11543;43.144;24.684;2023-11-18T07:16:11;98201.50;;;7.09;66.83
22753;BME280;11543;43.144;24.684;2023-11-18T07:18:38;98199.91;;;7.16;67.14
22753;BME280;11543;43.144;24.684;2023-11-18T07:21:04;98191.22;;;7.14;67.51
22753;BME280;11543;43.144;24.684;2023-11-18T07:23:33;98210.31;;;7.37;67.84
22753;BME280;11543;43.144;24.684;2023-11-18T07:26:00;98215.81;;;7.35;66.40
22753;BME280;11543;43.144;24.684;2023-11-18T07:28:25;98184.59;;;7.18;66.10
22753;BME280;11543;43.144;24.684;2023-11-18T07:30:52;98189.28;;;7.06;65.98
22753;BME280;11543;43.144;24.684;2023-11-18T07:33:19;98197.22;;;7.43;66.53
22753;BME280;11543;43.144;24.684;2023-11-18T07:35:47;98179.28;;;7.35;66.56
22753;BME280;11543;43.144;24.684;2023-11-18T07:38:14;98193.53;;;7.44;66.60
22753;BME280;11543;43.144;24.684;2023-11-18T07:40:40;98180.13;;;7.36;65.56
22753;BME280;11543;43.144;24.684;2023-11-18T07:43:17;98175.56;;;7.46;66.14
22753;BME280;11543;43.144;24.684;2023-11-18T07:45:43;98183.78;;;7.35;66.01
22753;BME280;11543;43.144;24.684;2023-11-18T07:48:12;98175.84;;;7.43;65.81
22753;BME280;11543;43.144;24.684;2023-11-18T07:50:39;98209.03;;;7.41;65.61
22753;BME280;11543;43.144;24.684;2023-11-18T07:53:09;98189.72;;;7.29;66.14
22753;BME280;11543;43.144;24.684;2023-11-18T07:55:35;98191.94;;;7.33;64.83
22753;BME280;11543;43.144;24.684;2023-11-18T07:58:08;98179.03;;;7.29;65.47
22753;BME280;11543;43.144;24.684;2023-11-18T08:00:42;98193.00;;;7.23;65.43
22753;BME280;11543;43.144;24.684;2023-11-18T08:03:10;98172.75;;;7.02;65.39
22753;BME280;11543;43.144;24.684;2023-11-18T08:05:43;98206.78;;;7.18;65.51
22753;BME280;11543;43.144;24.684;2023-11-18T08:08:13;98201.59;;;7.17;66.04
22753;BME280;11543;43.144;24.684;2023-11-18T08:10:40;98187.47;;;7.07;65.43
22753;BME280;11543;43.144;24.684;2023-11-18T08:13:12;98192.72;;;6.98;65.93
22753;BME280;11543;43.144;24.684;2023-11-18T08:15:40;98179.16;;;6.82;66.21
22753;BME280;11543;43.144;24.684;2023-11-18T08:18:06;98175.19;;;6.86;66.46
22753;BME280;11543;43.144;24.684;2023-11-18T08:20:32;98189.34;;;6.96;66.17
22753;BME280;11543;43.144;24.684;2023-11-18T08:22:58;98169.16;;;6.94;66.13
22753;BME280;11543;43.144;24.684;2023-11-18T08:25:24;98198.47;;;7.21;65.64
22753;BME280;11543;43.144;24.684;2023-11-18T08:27:51;98171.94;;;7.20;66.15
22753;BME280;11543;43.144;24.684;2023-11-18T08:30:16;98179.25;;;7.18;65.40
22753;BME280;11543;43.144;24.684;2023-11-18T08:32:44;98173.72;;;7.29;65.54
22753;BME280;11543;43.144;24.684;2023-11-18T08:35:12;98180.13;;;7.36;65.67
22753;BME280;11543;43.144;24.684;2023-11-18T08:37:41;98172.03;;;7.28;65.88
22753;BME280;11543;43.144;24.684;2023-11-18T08:40:13;98177.06;;;7.31;66.15
22753;BME280;11543;43.144;24.684;2023-11-18T08:42:52;98188.81;;;7.38;65.84
22753;BME280;11543;43.144;24.684;2023-11-18T08:45:22;98193.53;;;7.44;65.13
22753;BME280;11543;43.144;24.684;2023-11-18T08:47:53;98175.69;;;7.27;65.23
22753;BME280;11543;43.144;24.684;2023-11-18T08:50:20;98152.66;;;7.26;64.86
22753;BME280;11543;43.144;24.684;2023-11-18T08:52:50;98192.88;;;7.60;64.80
22753;BME280;11543;43.144;24.684;2023-11-18T08:55:18;98190.97;;;7.52;64.97
22753;BME280;11543;43.144;24.684;2023-11-18T08:57:48;98161.00;;;7.41;65.12
22753;BME280;11543;43.144;24.684;2023-11-18T09:00:18;98177.53;;;7.44;64.63
22753;BME280;11543;43.144;24.684;2023-11-18T09:03:04;98151.81;;;7.08;65.56
22753;BME280;11543;43.144;24.684;2023-11-18T09:05:32;98173.63;;;7.21;65.47
22753;BME280;11543;43.144;24.684;2023-11-18T09:07:59;98180.53;;;7.14;65.22
22753;BME280;11543;43.144;24.684;2023-11-18T09:10:27;98216.16;;;7.22;65.27
22753;BME280;11543;43.144;24.684;2023-11-18T09:12:56;98201.88;;;7.14;64.79
22753;BME280;11543;43.144;24.684;2023-11-18T09:15:21;98209.50;;;7.09;64.92
22753;BME280;11543;43.144;24.684;2023-11-18T09:17:48;98208.66;;;7.08;64.34
22753;BME280;11543;43.144;24.684;2023-11-18T09:20:14;98200.09;;;7.32;64.11
22753;BME280;11543;43.144;24.684;2023-11-18T09:22:46;98187.06;;;7.01;64.05
22753;BME280;11543;43.144;24.684;2023-11-18T09:25:12;98200.81;;;7.07;64.16
22753;BME280;11543;43.144;24.684;2023-11-18T09:27:37;98177.88;;;6.86;65.36
22753;BME280;11543;43.144;24.684;2023-11-18T09:30:05;98187.94;;;6.92;64.59
22753;BME280;11543;43.144;24.684;2023-11-18T09:32:42;98215.47;;;6.83;65.38
22753;BME280;11543;43.144;24.684;2023-11-18T09:35:08;98204.81;;;6.83;65.55
22753;BME280;11543;43.144;24.684;2023-11-18T09:37:39;98190.00;;;6.71;65.97
22753;BME280;11543;43.144;24.684;2023-11-18T09:40:07;98192.47;;;6.82;66.21
22753;BME280;11543;43.144;24.684;2023-11-18T09:42:42;98177.16;;;6.57;66.85
22753;BME280;11543;43.144;24.684;2023-11-18T09:45:09;98176.03;;;6.59;67.60
22753;BME280;11543;43.144;24.684;2023-11-18T09:47:45;98167.09;;;6.51;68.32
22753;BME280;11543;43.144;24.684;2023-11-18T09:50:20;98152.97;;;6.41;68.39
22753;BME280;11543;43.144;24.684;2023-11-18T09:52:54;98140.00;;;6.18;68.68
22753;BME280;11543;43.144;24.684;2023-11-18T09:55:47;98165.28;;;6.42;68.63
22753;BME280;11543;43.144;24.684;2023-11-18T09:58:15;98144.72;;;6.34;69.13
22753;BME280;11543;43.144;24.684;2023-11-18T10:00:46;98131.81;;;6.29;68.45
22753;BME280;11543;43.144;24.684;2023-11-18T10:03:16;98141.34;;;6.32;69.17
22753;BME280;11543;43.144;24.684;2023-11-18T10:05:42;98157.34;;;6.32;70.19
22753;BME280;11543;43.144;24.684;2023-11-18T10:08:09;98152.88;;;6.23;71.31
22753;BME280;11543;43.144;24.684;2023-11-18T10:10:35;98136.53;;;6.08;72.48
22753;BME280;11543;43.144;24.684;2023-11-18T10:13:04;98128.50;;;5.89;72.88
22753;BME280;11543;43.144;24.684;2023-11-18T10:15:34;98149.25;;;6.04;74.18
22753;BME280;11543;43.144;24.684;2023-11-18T10:18:00;98142.69;;;5.99;74.90
22753;BME280;11543;43.144;24.684;2023-11-18T10:23:08;98103.88;;;5.77;74.75
22753;BME280;11543;43.144;24.684;2023-11-18T10:25:51;98102.47;;;5.83;74.39
22753;BME280;11543;43.144;24.684;2023-11-18T10:28:36;98073.06;;;5.74;73.78
22753;BME280;11543;43.144;24.684;2023-11-18T10:31:05;98057.81;;;5.76;72.62
22753;BME280;11543;43.144;24.684;2023-11-18T10:33:32;98094.91;;;6.07;72.69
22753;BME280;11543;43.144;24.684;2023-11-18T10:35:59;98076.25;;;6.07;71.45
22753;BME280;11543;43.144;24.684;2023-11-18T10:38:32;98080.03;;;6.14;71.07
22753;BME280;11543;43.144;24.684;2023-11-18T10:41:01;98085.88;;;6.18;69.80
22753;BME280;11543;43.144;24.684;2023-11-18T10:43:27;98105.69;;;6.43;69.93
22753;BME280;11543;43.144;24.684;2023-11-18T10:46:12;98095.97;;;6.51;68.95
22753;BME280;11543;43.144;24.684;2023-11-18T10:48:48;98072.53;;;6.55;68.92
22753;BME280;11543;43.144;24.684;2023-11-18T10:51:15;98092.66;;;6.67;68.69
22753;BME280;11543;43.144;24.684;2023-11-18T10:53:48;98067.69;;;6.68;68.55
22753;BME280;11543;43.144;24.684;2023-11-18T10:56:29;98072.19;;;6.67;67.24
22753;BME280;11543;43.144;24.684;2023-11-18T10:58:58;98071.97;;;6.79;67.92
22753;BME280;11543;43.144;24.684;2023-11-18T11:01:32;98056.50;;;6.82;67.22
22753;BME280;11543;43.144;24.684;2023-11-18T11:03:58;98061.16;;;6.80;67.22
22753;BME280;11543;43.144;24.684;2023-11-18T11:06:25;98025.50;;;6.81;68.34
22753;BME280;11543;43.144;24.684;2023-11-18T11:08:54;98018.81;;;6.77;67.75
22753;BME280;11543;43.144;24.684;2023-11-18T11:11:21;97995.94;;;6.57;67.42
22753;BME280;11543;43.144;24.684;2023-11-18T11:13:49;98026.56;;;6.88;67.89
22753;BME280;11543;43.144;24.684;2023-11-18T11:16:20;97999.06;;;6.70;68.02
22753;BME280;11543;43.144;24.684;2023-11-18T11:18:53;97978.59;;;6.53;67.95
22753;BME280;11543;43.144;24.684;2023-11-18T11:21:26;98031.44;;;6.75;68.21
22753;BME280;11543;43.144;24.684;2023-11-18T11:24:02;98033.13;;;6.76;68.20
22753;BME280;11543;43.144;24.684;2023-11-18T11:29:41;98031.88;;;6.53;68.08
22753;BME280;11543;43.144;24.684;2023-11-18T11:32:28;98048.81;;;6.79;68.49
22753;BME280;11543;43.144;24.684;2023-11-18T11:35:02;98029.00;;;6.64;68.44
22753;BME280;11543;43.144;24.684;2023-11-18T11:37:33;98034.81;;;6.77;69.43
22753;BME280;11543;43.144;24.684;2023-11-18T11:40:02;98034.94;;;6.58;68.79
22753;BME280;11543;43.144;24.684;2023-11-18T11:42:35;98041.03;;;6.68;69.36
22753;BME280;11543;43.144;24.684;2023-11-18T11:45:01;98044.84;;;6.83;69.02
22753;BME280;11543;43.144;24.684;2023-11-18T11:47:31;98060.47;;;6.78;68.19
22753;BME280;11543;43.144;24.684;2023-11-18T11:50:17;98044.47;;;6.78;68.53
22753;BME280;11543;43.144;24.684;2023-11-18T11:52:53;98054.38;;;6.68;67.58
22753;BME280;11543;43.144;24.684;2023-11-18T11:55:34;98058.94;;;6.76;67.20
22753;BME280;11543;43.144;24.684;2023-11-18T11:58:02;98060.63;;;6.77;67.75
22753;BME280;11543;43.144;24.684;2023-11-18T12:00:28;98088.59;;;6.90;67.16
22753;BME280;11543;43.144;24.684;2023-11-18T12:03:00;98068.47;;;6.78;66.96
22753;BME280;11543;43.144;24.684;2023-11-18T12:05:29;98083.25;;;6.90;67.32
22753;BME280;11543;43.144;24.684;2023-11-18T12:07:59;98083.56;;;6.87;67.16
22753;BME280;11543;43.144;24.684;2023-11-18T12:10:30;98082.88;;;6.85;66.98
22753;BME280;11543;43.144;24.684;2023-11-18T12:13:16;98085.25;;;6.88;67.14
22753;BME280;11543;43.144;24.684;2023-11-18T12:15:52;98079.44;;;6.75;66.71
22753;BME280;11543;43.144;24.684;2023-11-18T12:18:29;98098.94;;;6.93;66.51
22753;BME280;11543;43.144;24.684;2023-11-18T12:20:57;98096.75;;;6.89;67.21
22753;BME280;11543;43.144;24.684;2023-11-18T12:23:27;98061.56;;;6.58;66.91
22753;BME280;11543;43.144;24.684;2023-11-18T12:25:54;98080.81;;;6.79;67.75
22753;BME280;11543;43.144;24.684;2023-11-18T12:28:32;98082.84;;;6.67;67.15
22753;BME280;11543;43.144;24.684;2023-11-18T12:31:11;98110.63;;;6.65;67.51
22753;BME280;11543;43.144;24.684;2023-11-18T12:34:00;98121.19;;;6.84;66.88
22753;BME280;11543;43.144;24.684;2023-11-18T12:39:21;98130.94;;;6.93;66.98
22753;BME280;11543;43.144;24.684;2023-11-18T12:42:05;98133.03;;;6.72;67.25
22753;BME280;11543;43.144;24.684;2023-11-18T12:47:14;98110.94;;;6.62;67.53
22753;BME280;11543;43.144;24.684;2023-11-18T12:49:47;98120.66;;;6.81;67.34
22753;BME280;11543;43.144;24.684;2023-11-18T12:52:20;98124.84;;;6.83;67.53
22753;BME280;11543;43.144;24.684;2023-11-18T12:54:47;98102.72;;;6.73;67.92
22753;BME280;11543;43.144;24.684;2023-11-18T12:57:20;98093.44;;;6.77;67.58
22753;BME280;11543;43.144;24.684;2023-11-18T12:59:48;98115.25;;;6.90;66.89
22753;BME280;11543;43.144;24.684;2023-11-18T13:02:15;98099.84;;;6.84;66.87
22753;BME280;11543;43.144;24.684;2023-11-18T13:04:48;98113.94;;;6.77;67.38
22753;BME280;11543;43.144;24.684;2023-11-18T13:07:17;98123.16;;;6.82;68.27
22753;BME280;11543;43.144;24.684;2023-11-18T13:09:44;98123.75;;;6.76;68.16
22753;BME280;11543;43.144;24.684;2023-11-18T13:12:12;98116.25;;;6.62;68.80
22753;BME280;11543;43.144;24.684;2023-11-18T13:14:41;98114.91;;;6.48;68.25
22753;BME280;11543;43.144;24.684;2023-11-18T13:17:14;98135.00;;;6.70;68.86
22753;BME280;11543;43.144;24.684;2023-11-18T13:19:43;98116.00;;;6.55;68.83
22753;BME280;11543;43.144;24.684;2023-11-18T13:22:09;98139.56;;;6.60;69.03